Terminal Aerodrome Forecast
Issued by NWS

Home | Current Version | Previous Version | Text Only | Print | Product List | Glossary On
Versions: 1 2 3 4 5 6 7 8 9 10 11 12 13 14 15 16 17 18 19 20 21 22 23 24
000
FTUS43 KDVN 030600 AAA
TAFBRL
TAF AMD
KBRL 030626Z 0306/0406 14010KT P6SM OVC028
      TEMPO 0310/0314 4SM -FZRAPL BR OVC020
     FM031500 19015G22KT P6SM OVC015
     FM031700 22012KT 5SM BR OVC022
     FM032200 28014G22KT P6SM OVC022=

USA.gov is the U.S. government's official web portal to all federal, state and local government web resources and services.